sensor_id;sensor_type;location;lat;lon;timestamp;pressure;altitude;pressure_sealevel;temperature;humidity
6144;BME280;3103;49.492;8.474;2022-09-03T00:00:50;100082.19;;;22.57;33.51
6144;BME280;3103;49.492;8.474;2022-09-03T00:03:43;100075.25;;;22.59;33.42
6144;BME280;3103;49.492;8.474;2022-09-03T00:06:23;100071.03;;;22.62;33.61
6144;BME280;3103;49.492;8.474;2022-09-03T00:09:06;100078.75;;;22.68;33.73
6144;BME280;3103;49.492;8.474;2022-09-03T00:12:02;100072.94;;;22.70;33.35
6144;BME280;3103;49.492;8.474;2022-09-03T00:14:45;100068.50;;;22.57;33.59
6144;BME280;3103;49.492;8.474;2022-09-03T00:17:17;100074.63;;;22.54;33.71
6144;BME280;3103;49.492;8.474;2022-09-03T00:20:00;100068.66;;;22.51;33.68
6144;BME280;3103;49.492;8.474;2022-09-03T00:22:35;100070.50;;;22.30;34.28
6144;BME280;3103;49.492;8.474;2022-09-03T00:25:08;100077.91;;;22.38;34.07
6144;BME280;3103;49.492;8.474;2022-09-03T00:27:39;100074.66;;;22.36;34.34
6144;BME280;3103;49.492;8.474;2022-09-03T00:30:13;100072.97;;;22.61;33.78
6144;BME280;3103;49.492;8.474;2022-09-03T00:35:51;100075.84;;;22.27;34.66
6144;BME280;3103;49.492;8.474;2022-09-03T00:38:19;100075.19;;;22.30;34.45
6144;BME280;3103;49.492;8.474;2022-09-03T00:44:13;100075.03;;;22.26;34.46
6144;BME280;3103;49.492;8.474;2022-09-03T00:47:01;100071.00;;;22.23;34.74
6144;BME280;3103;49.492;8.474;2022-09-03T00:49:40;100068.91;;;22.29;34.83
6144;BME280;3103;49.492;8.474;2022-09-03T00:55:32;100071.31;;;22.39;34.51
6144;BME280;3103;49.492;8.474;2022-09-03T01:00:48;100069.53;;;22.35;34.80
6144;BME280;3103;49.492;8.474;2022-09-03T01:03:41;100068.72;;;22.34;34.70
6144;BME280;3103;49.492;8.474;2022-09-03T01:06:23;100067.13;;;22.33;34.88
6144;BME280;3103;49.492;8.474;2022-09-03T01:09:11;100058.88;;;22.42;34.72
6144;BME280;3103;49.492;8.474;2022-09-03T01:12:34;100063.72;;;22.36;34.76
6144;BME280;3103;49.492;8.474;2022-09-03T01:18:23;100068.19;;;22.49;34.64
6144;BME280;3103;49.492;8.474;2022-09-03T01:23:51;100073.78;;;22.15;35.57
6144;BME280;3103;49.492;8.474;2022-09-03T01:26:30;100076.44;;;22.41;35.05
6144;BME280;3103;49.492;8.474;2022-09-03T01:29:31;100069.75;;;22.12;35.84
6144;BME280;3103;49.492;8.474;2022-09-03T01:35:08;100071.97;;;22.28;35.82
6144;BME280;3103;49.492;8.474;2022-09-03T01:43:39;100074.84;;;22.31;35.97
6144;BME280;3103;49.492;8.474;2022-09-03T01:46:22;100074.06;;;22.05;36.56
6144;BME280;3103;49.492;8.474;2022-09-03T01:51:23;100076.34;;;22.03;36.82
6144;BME280;3103;49.492;8.474;2022-09-03T01:57:04;100079.25;;;21.98;36.63
6144;BME280;3103;49.492;8.474;2022-09-03T02:00:02;100074.06;;;22.05;36.77
6144;BME280;3103;49.492;8.474;2022-09-03T02:02:38;100077.97;;;22.12;36.54
6144;BME280;3103;49.492;8.474;2022-09-03T02:05:26;100075.06;;;22.09;36.72
6144;BME280;3103;49.492;8.474;2022-09-03T02:07:56;100079.06;;;22.03;37.02
6144;BME280;3103;49.492;8.474;2022-09-03T02:10:42;100080.53;;;22.09;37.13
6144;BME280;3103;49.492;8.474;2022-09-03T02:13:15;100086.47;;;22.19;37.18
6144;BME280;3103;49.492;8.474;2022-09-03T02:15:45;100084.84;;;22.27;36.82
6144;BME280;3103;49.492;8.474;2022-09-03T02:18:18;100082.31;;;22.13;37.04
6144;BME280;3103;49.492;8.474;2022-09-03T02:20:47;100085.50;;;22.15;37.18
6144;BME280;3103;49.492;8.474;2022-09-03T02:23:15;100090.84;;;22.12;37.15
6144;BME280;3103;49.492;8.474;2022-09-03T02:25:47;100095.66;;;21.98;37.28
6144;BME280;3103;49.492;8.474;2022-09-03T02:28:15;100096.28;;;21.94;37.63
6144;BME280;3103;49.492;8.474;2022-09-03T02:30:43;100090.66;;;21.91;37.51
6144;BME280;3103;49.492;8.474;2022-09-03T02:33:11;100100.97;;;21.85;37.72
6144;BME280;3103;49.492;8.474;2022-09-03T02:35:39;100095.31;;;21.90;37.16
6144;BME280;3103;49.492;8.474;2022-09-03T02:38:11;100093.06;;;21.92;36.98
6144;BME280;3103;49.492;8.474;2022-09-03T02:40:38;100091.47;;;22.09;36.55
6144;BME280;3103;49.492;8.474;2022-09-03T02:43:08;100093.91;;;22.10;36.32
6144;BME280;3103;49.492;8.474;2022-09-03T02:45:42;100089.38;;;22.06;36.77
6144;BME280;3103;49.492;8.474;2022-09-03T02:48:13;100091.78;;;22.16;36.21
6144;BME280;3103;49.492;8.474;2022-09-03T02:50:42;100085.19;;;22.00;36.54
6144;BME280;3103;49.492;8.474;2022-09-03T02:53:09;100081.19;;;22.06;36.48
6144;BME280;3103;49.492;8.474;2022-09-03T02:55:36;100086.47;;;22.02;36.53
6144;BME280;3103;49.492;8.474;2022-09-03T02:58:03;100081.50;;;21.87;36.89
6144;BME280;3103;49.492;8.474;2022-09-03T03:00:32;100079.06;;;21.94;36.71
6144;BME280;3103;49.492;8.474;2022-09-03T03:02:59;100082.78;;;22.07;36.70
6144;BME280;3103;49.492;8.474;2022-09-03T03:05:34;100076.03;;;22.13;36.27
6144;BME280;3103;49.492;8.474;2022-09-03T03:08:07;100075.84;;;22.01;36.62
6144;BME280;3103;49.492;8.474;2022-09-03T03:10:34;100081.97;;;22.06;36.35
6144;BME280;3103;49.492;8.474;2022-09-03T03:13:01;100085.19;;;22.00;36.54
6144;BME280;3103;49.492;8.474;2022-09-03T03:15:27;100081.03;;;21.85;36.78
6144;BME280;3103;49.492;8.474;2022-09-03T03:17:55;100089.38;;;21.97;36.91
6144;BME280;3103;49.492;8.474;2022-09-03T03:20:22;100080.69;;;21.86;36.82
6144;BME280;3103;49.492;8.474;2022-09-03T03:22:49;100070.75;;;21.82;37.15
6144;BME280;3103;49.492;8.474;2022-09-03T03:25:16;100080.84;;;21.99;36.89
6144;BME280;3103;49.492;8.474;2022-09-03T03:27:44;100068.78;;;21.91;36.88
6144;BME280;3103;49.492;8.474;2022-09-03T03:30:11;100075.88;;;21.75;37.25
6144;BME280;3103;49.492;8.474;2022-09-03T03:35:05;100072.03;;;21.76;37.34
6144;BME280;3103;49.492;8.474;2022-09-03T03:37:32;100077.81;;;21.74;37.12
6144;BME280;3103;49.492;8.474;2022-09-03T03:39:59;100077.00;;;21.65;37.74
6144;BME280;3103;49.492;8.474;2022-09-03T03:42:25;100080.56;;;21.83;37.54
6144;BME280;3103;49.492;8.474;2022-09-03T03:44:52;100074.44;;;21.77;37.41
6144;BME280;3103;49.492;8.474;2022-09-03T03:47:19;100082.31;;;21.61;37.69
6144;BME280;3103;49.492;8.474;2022-09-03T03:49:45;100080.38;;;21.45;37.96
6144;BME280;3103;49.492;8.474;2022-09-03T03:52:12;100081.03;;;21.59;37.95
6144;BME280;3103;49.492;8.474;2022-09-03T03:54:39;100084.56;;;21.59;37.83
6144;BME280;3103;49.492;8.474;2022-09-03T03:57:05;100081.69;;;21.73;37.46
6144;BME280;3103;49.492;8.474;2022-09-03T03:59:32;100076.84;;;21.70;37.70
6144;BME280;3103;49.492;8.474;2022-09-03T04:01:59;100082.16;;;21.75;37.61
6144;BME280;3103;49.492;8.474;2022-09-03T04:04:26;100097.41;;;21.68;37.80
6144;BME280;3103;49.492;8.474;2022-09-03T04:06:52;100089.53;;;21.49;38.09
6144;BME280;3103;49.492;8.474;2022-09-03T04:09:19;100084.22;;;21.52;38.07
6144;BME280;3103;49.492;8.474;2022-09-03T04:11:46;100088.09;;;21.51;38.42
6144;BME280;3103;49.492;8.474;2022-09-03T04:14:13;100082.13;;;21.67;38.16
6144;BME280;3103;49.492;8.474;2022-09-03T04:16:39;100085.69;;;21.67;37.90
6144;BME280;3103;49.492;8.474;2022-09-03T04:19:06;100084.59;;;21.68;37.99
6144;BME280;3103;49.492;8.474;2022-09-03T04:21:33;100078.94;;;21.64;37.97
6144;BME280;3103;49.492;8.474;2022-09-03T04:24:00;100086.00;;;21.74;37.89
6144;BME280;3103;49.492;8.474;2022-09-03T04:26:31;100094.69;;;21.76;37.83
6144;BME280;3103;49.492;8.474;2022-09-03T04:28:59;100092.13;;;21.71;37.90
6144;BME280;3103;49.492;8.474;2022-09-03T04:31:28;100094.84;;;21.45;38.35
6144;BME280;3103;49.492;8.474;2022-09-03T04:33:55;100097.75;;;21.57;38.43
6144;BME280;3103;49.492;8.474;2022-09-03T04:36:24;100102.56;;;21.60;37.66
6144;BME280;3103;49.492;8.474;2022-09-03T04:38:52;100097.56;;;21.37;38.34
6144;BME280;3103;49.492;8.474;2022-09-03T04:41:22;100108.16;;;21.38;38.30
6144;BME280;3103;49.492;8.474;2022-09-03T04:43:53;100107.84;;;21.31;40.09
6144;BME280;3103;49.492;8.474;2022-09-03T04:46:22;100104.63;;;21.38;40.65
6144;BME280;3103;49.492;8.474;2022-09-03T04:48:50;100110.25;;;21.32;40.80
6144;BME280;3103;49.492;8.474;2022-09-03T04:51:21;100113.38;;;21.09;42.26
6144;BME280;3103;49.492;8.474;2022-09-03T04:53:53;100100.41;;;21.14;42.22
6144;BME280;3103;49.492;8.474;2022-09-03T04:56:24;100107.78;;;21.22;42.31
6144;BME280;3103;49.492;8.474;2022-09-03T04:58:59;100111.31;;;21.14;42.71
6144;BME280;3103;49.492;8.474;2022-09-03T05:01:29;100110.16;;;21.07;43.32
6144;BME280;3103;49.492;8.474;2022-09-03T05:03:57;100111.31;;;21.14;42.94
6144;BME280;3103;49.492;8.474;2022-09-03T05:06:24;100119.03;;;21.12;43.44
6144;BME280;3103;49.492;8.474;2022-09-03T05:08:53;100120.22;;;21.28;43.29
6144;BME280;3103;49.492;8.474;2022-09-03T05:11:20;100127.81;;;21.40;43.25
6144;BME280;3103;49.492;8.474;2022-09-03T05:13:52;100128.69;;;21.18;43.84
6144;BME280;3103;49.492;8.474;2022-09-03T05:16:21;100115.31;;;21.08;44.09
6144;BME280;3103;49.492;8.474;2022-09-03T05:18:53;100114.81;;;21.06;43.81
6144;BME280;3103;49.492;8.474;2022-09-03T05:21:21;100123.00;;;20.97;43.78
6144;BME280;3103;49.492;8.474;2022-09-03T05:23:49;100128.75;;;20.87;43.97
6144;BME280;3103;49.492;8.474;2022-09-03T05:26:18;100120.13;;;21.02;43.70
6144;BME280;3103;49.492;8.474;2022-09-03T05:28:45;100121.84;;;20.90;43.68
6144;BME280;3103;49.492;8.474;2022-09-03T05:31:15;100129.06;;;20.86;43.34
6144;BME280;3103;49.492;8.474;2022-09-03T05:33:47;100139.50;;;20.84;43.46
6144;BME280;3103;49.492;8.474;2022-09-03T05:36:22;100135.38;;;21.03;43.10
6144;BME280;3103;49.492;8.474;2022-09-03T05:38:50;100142.56;;;20.91;43.09
6144;BME280;3103;49.492;8.474;2022-09-03T05:41:19;100135.41;;;21.12;42.79
6144;BME280;3103;49.492;8.474;2022-09-03T05:43:50;100141.03;;;21.16;42.63
6144;BME280;3103;49.492;8.474;2022-09-03T05:46:25;100148.59;;;21.19;42.55
6144;BME280;3103;49.492;8.474;2022-09-03T05:49:01;100146.78;;;21.05;43.16
6144;BME280;3103;49.492;8.474;2022-09-03T05:51:29;100153.25;;;21.18;42.98
6144;BME280;3103;49.492;8.474;2022-09-03T05:53:56;100162.16;;;21.32;42.41
6144;BME280;3103;49.492;8.474;2022-09-03T05:56:25;100154.72;;;21.24;42.82
6144;BME280;3103;49.492;8.474;2022-09-03T05:58:54;100159.22;;;21.20;42.89
6144;BME280;3103;49.492;8.474;2022-09-03T06:01:24;100158.69;;;21.10;43.31
6144;BME280;3103;49.492;8.474;2022-09-03T06:03:56;100158.00;;;20.95;43.79
6144;BME280;3103;49.492;8.474;2022-09-03T06:06:24;100157.13;;;20.78;43.99
6144;BME280;3103;49.492;8.474;2022-09-03T06:08:57;100160.13;;;21.07;43.50
6144;BME280;3103;49.492;8.474;2022-09-03T06:11:25;100159.09;;;20.94;43.98
6144;BME280;3103;49.492;8.474;2022-09-03T06:13:58;100165.41;;;21.03;43.80
6144;BME280;3103;49.492;8.474;2022-09-03T06:16:28;100157.00;;;20.91;43.86
6144;BME280;3103;49.492;8.474;2022-09-03T06:18:58;100167.41;;;20.81;44.41
6144;BME280;3103;49.492;8.474;2022-09-03T06:21:25;100169.13;;;21.08;43.56
6144;BME280;3103;49.492;8.474;2022-09-03T06:23:55;100167.94;;;20.91;44.00
6144;BME280;3103;49.492;8.474;2022-09-03T06:26:26;100161.78;;;20.77;44.51
6144;BME280;3103;49.492;8.474;2022-09-03T06:28:54;100178.09;;;20.99;44.33
6144;BME280;3103;49.492;8.474;2022-09-03T06:31:22;100175.84;;;21.01;44.13
6144;BME280;3103;49.492;8.474;2022-09-03T06:33:49;100185.94;;;20.92;45.69
6144;BME280;3103;49.492;8.474;2022-09-03T06:36:18;100188.50;;;20.89;46.92
6144;BME280;3103;49.492;8.474;2022-09-03T06:38:46;100192.38;;;20.65;48.07
6144;BME280;3103;49.492;8.474;2022-09-03T06:41:17;100179.28;;;20.76;49.70
6144;BME280;3103;49.492;8.474;2022-09-03T06:43:56;100180.00;;;20.68;49.66
6144;BME280;3103;49.492;8.474;2022-09-03T06:46:35;100187.28;;;20.72;49.64
6144;BME280;3103;49.492;8.474;2022-09-03T06:49:04;100187.91;;;20.69;51.83
6144;BME280;3103;49.492;8.474;2022-09-03T06:51:32;100194.25;;;20.56;51.99
6144;BME280;3103;49.492;8.474;2022-09-03T06:54:10;100203.75;;;20.59;52.69
6144;BME280;3103;49.492;8.474;2022-09-03T06:56:39;100200.94;;;20.50;53.48
6144;BME280;3103;49.492;8.474;2022-09-03T06:59:13;100196.84;;;20.61;53.69
6144;BME280;3103;49.492;8.474;2022-09-03T07:01:41;100211.00;;;20.63;54.25
6144;BME280;3103;49.492;8.474;2022-09-03T07:04:12;100201.97;;;20.40;56.08
6144;BME280;3103;49.492;8.474;2022-09-03T07:06:40;100204.31;;;20.11;56.84
6144;BME280;3103;49.492;8.474;2022-09-03T07:09:09;100204.66;;;19.96;57.29
6144;BME280;3103;49.492;8.474;2022-09-03T07:11:36;100199.41;;;19.99;57.22
6144;BME280;3103;49.492;8.474;2022-09-03T07:14:04;100208.16;;;20.10;57.86
6144;BME280;3103;49.492;8.474;2022-09-03T07:16:33;100210.66;;;20.20;58.42
6144;BME280;3103;49.492;8.474;2022-09-03T07:19:00;100210.38;;;19.85;58.78
6144;BME280;3103;49.492;8.474;2022-09-03T07:21:30;100217.41;;;20.00;58.47
6144;BME280;3103;49.492;8.474;2022-09-03T07:23:59;100212.13;;;20.04;59.35
6144;BME280;3103;49.492;8.474;2022-09-03T07:26:29;100211.00;;;20.05;58.58
6144;BME280;3103;49.492;8.474;2022-09-03T07:28:57;100218.25;;;20.09;58.74
6144;BME280;3103;49.492;8.474;2022-09-03T07:31:31;100225.28;;;20.24;58.96
6144;BME280;3103;49.492;8.474;2022-09-03T07:34:04;100223.44;;;20.33;58.91
6144;BME280;3103;49.492;8.474;2022-09-03T07:36:46;100221.13;;;20.27;58.84
6144;BME280;3103;49.492;8.474;2022-09-03T07:39:15;100225.47;;;20.41;58.76
6144;BME280;3103;49.492;8.474;2022-09-03T07:41:42;100221.00;;;20.32;60.02
6144;BME280;3103;49.492;8.474;2022-09-03T07:44:15;100225.72;;;20.17;60.32
6144;BME280;3103;49.492;8.474;2022-09-03T07:46:45;100223.91;;;20.13;61.42
6144;BME280;3103;49.492;8.474;2022-09-03T07:49:13;100227.56;;;20.08;61.13
6144;BME280;3103;49.492;8.474;2022-09-03T07:51:40;100223.72;;;20.09;61.91
6144;BME280;3103;49.492;8.474;2022-09-03T07:54:09;100221.44;;;19.89;63.10
6144;BME280;3103;49.492;8.474;2022-09-03T07:56:38;100222.50;;;19.66;64.15
6144;BME280;3103;49.492;8.474;2022-09-03T07:59:05;100224.81;;;19.72;64.20
6144;BME280;3103;49.492;8.474;2022-09-03T08:01:34;100206.63;;;19.68;65.16
6144;BME280;3103;49.492;8.474;2022-09-03T08:04:01;100198.53;;;19.90;64.33
6144;BME280;3103;49.492;8.474;2022-09-03T08:06:30;100203.81;;;20.09;64.15
6144;BME280;3103;49.492;8.474;2022-09-03T08:09:01;100205.09;;;19.89;65.22
6144;BME280;3103;49.492;8.474;2022-09-03T08:11:34;100200.47;;;19.76;65.93
6144;BME280;3103;49.492;8.474;2022-09-03T08:14:06;100206.06;;;19.57;67.15
6144;BME280;3103;49.492;8.474;2022-09-03T08:16:39;100207.69;;;19.58;67.29
6144;BME280;3103;49.492;8.474;2022-09-03T08:19:07;100220.16;;;19.45;67.35
6144;BME280;3103;49.492;8.474;2022-09-03T08:21:34;100215.41;;;19.37;67.35
6144;BME280;3103;49.492;8.474;2022-09-03T08:24:01;100202.59;;;19.79;65.90
6144;BME280;3103;49.492;8.474;2022-09-03T08:26:30;100207.22;;;19.78;66.30
6144;BME280;3103;49.492;8.474;2022-09-03T08:28:58;100218.44;;;19.49;67.51
6144;BME280;3103;49.492;8.474;2022-09-03T08:31:25;100208.78;;;19.57;67.53
6144;BME280;3103;49.492;8.474;2022-09-03T08:33:55;100204.81;;;19.77;66.98
6144;BME280;3103;49.492;8.474;2022-09-03T08:36:27;100221.50;;;19.98;66.55
6144;BME280;3103;49.492;8.474;2022-09-03T08:38:57;100235.94;;;19.98;65.69
6144;BME280;3103;49.492;8.474;2022-09-03T08:47:08;100257.41;;;19.64;67.93
6144;BME280;3103;49.492;8.474;2022-09-03T08:49:45;100265.22;;;19.56;68.92
6144;BME280;3103;49.492;8.474;2022-09-03T08:52:41;100268.91;;;19.47;70.55
6144;BME280;3103;49.492;8.474;2022-09-03T08:55:26;100284.75;;;19.45;69.44
6144;BME280;3103;49.492;8.474;2022-09-03T08:58:01;100282.34;;;19.43;69.15
6144;BME280;3103;49.492;8.474;2022-09-03T09:00:42;100279.28;;;19.31;69.75
6144;BME280;3103;49.492;8.474;2022-09-03T09:06:04;100277.72;;;19.11;70.36
6144;BME280;3103;49.492;8.474;2022-09-03T09:14:06;100283.69;;;19.13;71.31
6144;BME280;3103;49.492;8.474;2022-09-03T09:17:06;100281.69;;;19.19;71.58
6144;BME280;3103;49.492;8.474;2022-09-03T09:19:59;100278.19;;;19.32;71.13
6144;BME280;3103;49.492;8.474;2022-09-03T09:25:01;100274.44;;;19.42;69.97
6144;BME280;3103;49.492;8.474;2022-09-03T09:27:31;100270.91;;;19.41;70.01
6144;BME280;3103;49.492;8.474;2022-09-03T09:30:00;100283.06;;;19.76;67.86
6144;BME280;3103;49.492;8.474;2022-09-03T09:32:29;100272.28;;;19.71;68.23
6144;BME280;3103;49.492;8.474;2022-09-03T09:34:57;100275.69;;;19.77;68.15
6144;BME280;3103;49.492;8.474;2022-09-03T09:37:24;100275.88;;;19.67;69.12
6144;BME280;3103;49.492;8.474;2022-09-03T09:39:59;100275.66;;;19.91;67.59
6144;BME280;3103;49.492;8.474;2022-09-03T09:42:26;100277.41;;;19.86;68.11
6144;BME280;3103;49.492;8.474;2022-09-03T09:44:55;100274.75;;;19.81;68.61
6144;BME280;3103;49.492;8.474;2022-09-03T09:47:30;100281.09;;;20.04;68.26
6144;BME280;3103;49.492;8.474;2022-09-03T09:50:01;100277.59;;;20.26;67.15
6144;BME280;3103;49.492;8.474;2022-09-03T09:52:30;100278.81;;;20.34;66.75
6144;BME280;3103;49.492;8.474;2022-09-03T09:55:14;100272.91;;;20.40;66.66
6144;BME280;3103;49.492;8.474;2022-09-03T09:57:41;100276.59;;;20.81;65.52
6144;BME280;3103;49.492;8.474;2022-09-03T10:00:14;100279.97;;;21.00;65.01
6144;BME280;3103;49.492;8.474;2022-09-03T10:02:52;100269.59;;;21.42;63.05
6144;BME280;3103;49.492;8.474;2022-09-03T10:05:27;100272.75;;;21.75;61.08
6144;BME280;3103;49.492;8.474;2022-09-03T10:07:58;100277.28;;;21.88;61.42
6144;BME280;3103;49.492;8.474;2022-09-03T10:10:26;100269.91;;;21.97;60.25
6144;BME280;3103;49.492;8.474;2022-09-03T10:13:05;100275.00;;;21.81;61.07
6144;BME280;3103;49.492;8.474;2022-09-03T10:15:36;100274.84;;;21.69;61.40
6144;BME280;3103;49.492;8.474;2022-09-03T10:20:45;100275.97;;;21.77;61.24
6144;BME280;3103;49.492;8.474;2022-09-03T10:23:23;100268.19;;;21.61;61.11
6144;BME280;3103;49.492;8.474;2022-09-03T10:25:59;100258.44;;;21.69;61.19
6144;BME280;3103;49.492;8.474;2022-09-03T10:28:34;100256.31;;;21.66;61.60
6144;BME280;3103;49.492;8.474;2022-09-03T10:34:06;100251.97;;;21.65;61.91
6144;BME280;3103;49.492;8.474;2022-09-03T10:36:38;100254.00;;;22.08;59.94
6144;BME280;3103;49.492;8.474;2022-09-03T10:39:13;100254.34;;;22.15;60.63
6144;BME280;3103;49.492;8.474;2022-09-03T10:47:18;100249.03;;;22.36;59.79
6144;BME280;3103;49.492;8.474;2022-09-03T10:50:06;100251.75;;;22.62;59.25
6144;BME280;3103;49.492;8.474;2022-09-03T10:55:40;100247.91;;;22.28;59.88
6144;BME280;3103;49.492;8.474;2022-09-03T11:01:17;100241.47;;;22.24;60.43
6144;BME280;3103;49.492;8.474;2022-09-03T11:04:04;100244.97;;;22.50;59.96
6144;BME280;3103;49.492;8.474;2022-09-03T11:06:42;100249.81;;;22.71;59.88
6144;BME280;3103;49.492;8.474;2022-09-03T11:11:53;100258.81;;;22.71;59.06
6144;BME280;3103;49.492;8.474;2022-09-03T11:15:14;100259.13;;;22.78;58.81
6144;BME280;3103;49.492;8.474;2022-09-03T11:18:25;100258.81;;;22.71;58.73
6144;BME280;3103;49.492;8.474;2022-09-03T11:20:56;100255.75;;;22.73;57.66
6144;BME280;3103;49.492;8.474;2022-09-03T11:23:28;100251.25;;;22.86;57.84
6144;BME280;3103;49.492;8.474;2022-09-03T11:26:00;100247.34;;;23.04;56.76
6144;BME280;3103;49.492;8.474;2022-09-03T11:28:38;100247.47;;;23.07;57.24
6144;BME280;3103;49.492;8.474;2022-09-03T11:31:20;100240.69;;;23.14;56.64
6144;BME280;3103;49.492;8.474;2022-09-03T11:33:56;100239.03;;;23.30;55.91
6144;BME280;3103;49.492;8.474;2022-09-03T11:36:30;100234.69;;;23.20;56.48
6144;BME280;3103;49.492;8.474;2022-09-03T11:38:57;100227.72;;;23.31;56.31
6144;BME280;3103;49.492;8.474;2022-09-03T11:41:30;100224.94;;;23.40;53.89
6144;BME280;3103;49.492;8.474;2022-09-03T11:44:17;100220.63;;;23.30;55.91
6144;BME280;3103;49.492;8.474;2022-09-03T11:46:54;100217.19;;;23.13;56.82
6144;BME280;3103;49.492;8.474;2022-09-03T11:49:30;100227.25;;;23.29;54.93
6144;BME280;3103;49.492;8.474;2022-09-03T11:52:03;100223.91;;;23.24;54.92
6144;BME280;3103;49.492;8.474;2022-09-03T11:54:42;100227.38;;;23.33;54.20
6144;BME280;3103;49.492;8.474;2022-09-03T11:57:15;100221.47;;;23.22;53.22
6144;BME280;3103;49.492;8.474;2022-09-03T11:59:47;100216.31;;;23.21;53.63
6144;BME280;3103;49.492;8.474;2022-09-03T12:02:24;100220.66;;;23.22;54.11
6144;BME280;3103;49.492;8.474;2022-09-03T12:05:11;100221.31;;;23.19;53.57
6144;BME280;3103;49.492;8.474;2022-09-03T12:07:44;100217.91;;;23.30;52.87
6144;BME280;3103;49.492;8.474;2022-09-03T12:10:35;100207.03;;;23.43;52.67
6144;BME280;3103;49.492;8.474;2022-09-03T12:13:21;100206.19;;;23.51;52.23
6144;BME280;3103;49.492;8.474;2022-09-03T12:16:12;100207.06;;;23.34;52.31
6144;BME280;3103;49.492;8.474;2022-09-03T12:18:45;100204.78;;;23.36;52.42
6144;BME280;3103;49.492;8.474;2022-09-03T12:21:16;100202.03;;;23.45;52.18
6144;BME280;3103;49.492;8.474;2022-09-03T12:23:45;100196.06;;;23.43;51.35
6144;BME280;3103;49.492;8.474;2022-09-03T12:28:45;100194.00;;;23.39;51.83
6144;BME280;3103;49.492;8.474;2022-09-03T12:31:14;100196.28;;;23.37;51.69
6144;BME280;3103;49.492;8.474;2022-09-03T12:33:59;100195.22;;;23.51;51.45
6144;BME280;3103;49.492;8.474;2022-09-03T12:36:38;100195.94;;;23.89;50.31
6144;BME280;3103;49.492;8.474;2022-09-03T12:39:14;100198.72;;;23.60;51.37
6144;BME280;3103;49.492;8.474;2022-09-03T12:42:04;100196.41;;;23.41;52.39
6144;BME280;3103;49.492;8.474;2022-09-03T12:47:11;100196.03;;;23.51;52.42
6144;BME280;3103;49.492;8.474;2022-09-03T12:52:38;100203.41;;;23.59;52.61
6144;BME280;3103;49.492;8.474;2022-09-03T13:03:34;100215.81;;;23.65;52.46
6144;BME280;3103;49.492;8.474;2022-09-03T13:06:09;100219.88;;;23.59;52.97
6144;BME280;3103;49.492;8.474;2022-09-03T13:08:54;100216.31;;;23.59;52.88
6144;BME280;3103;49.492;8.474;2022-09-03T13:11:22;100210.84;;;23.59;53.04
6144;BME280;3103;49.492;8.474;2022-09-03T13:13:55;100215.47;;;23.67;53.18
6144;BME280;3103;49.492;8.474;2022-09-03T13:19:23;100226.53;;;24.00;52.42
6144;BME280;3103;49.492;8.474;2022-09-03T13:22:11;100219.91;;;24.01;52.55
6144;BME280;3103;49.492;8.474;2022-09-03T13:27:41;100229.16;;;24.17;52.29
6144;BME280;3103;49.492;8.474;2022-09-03T13:30:21;100227.69;;;23.99;52.91
6144;BME280;3103;49.492;8.474;2022-09-03T13:33:04;100224.34;;;23.93;52.79
6144;BME280;3103;49.492;8.474;2022-09-03T13:35:46;100216.69;;;23.78;53.54
6144;BME280;3103;49.492;8.474;2022-09-03T13:38:38;100218.09;;;23.84;54.06
6144;BME280;3103;49.492;8.474;2022-09-03T13:41:13;100219.53;;;24.11;53.12
6144;BME280;3103;49.492;8.474;2022-09-03T13:44:00;100219.41;;;24.08;53.11
6144;BME280;3103;49.492;8.474;2022-09-03T13:46:39;100220.31;;;24.12;53.38
6144;BME280;3103;49.492;8.474;2022-09-03T13:49:20;100213.16;;;23.98;53.90
6144;BME280;3103;49.492;8.474;2022-09-03T13:52:20;100206.25;;;24.13;53.69
6144;BME280;3103;49.492;8.474;2022-09-03T13:54:58;100210.75;;;24.18;53.37
6144;BME280;3103;49.492;8.474;2022-09-03T13:57:46;100203.22;;;24.36;53.17
6144;BME280;3103;49.492;8.474;2022-09-03T14:00:30;100207.66;;;24.19;53.85
6144;BME280;3103;49.492;8.474;2022-09-03T14:06:02;100204.09;;;23.77;55.20
6144;BME280;3103;49.492;8.474;2022-09-03T14:08:42;100203.84;;;23.70;55.44
6144;BME280;3103;49.492;8.474;2022-09-03T14:14:05;100207.81;;;23.52;56.15
6144;BME280;3103;49.492;8.474;2022-09-03T14:16:47;100204.75;;;23.45;56.56
6144;BME280;3103;49.492;8.474;2022-09-03T14:22:14;100207.59;;;23.86;55.95
6144;BME280;3103;49.492;8.474;2022-09-03T14:24:51;100195.41;;;23.75;56.00
6144;BME280;3103;49.492;8.474;2022-09-03T14:27:28;100200.16;;;23.66;56.73
6144;BME280;3103;49.492;8.474;2022-09-03T14:30:04;100208.28;;;23.83;55.75
6144;BME280;3103;49.492;8.474;2022-09-03T14:35:13;100216.69;;;25.07;52.22
6144;BME280;3103;49.492;8.474;2022-09-03T14:40:34;100205.78;;;26.24;47.99
6144;BME280;3103;49.492;8.474;2022-09-03T14:46:38;100203.41;;;26.22;48.17
6144;BME280;3103;49.492;8.474;2022-09-03T14:52:01;100196.97;;;25.05;51.30
6144;BME280;3103;49.492;8.474;2022-09-03T14:57:21;100207.28;;;24.30;54.25
6144;BME280;3103;49.492;8.474;2022-09-03T15:00:12;100210.03;;;24.30;54.60
6144;BME280;3103;49.492;8.474;2022-09-03T15:02:49;100211.06;;;24.16;55.28
6144;BME280;3103;49.492;8.474;2022-09-03T15:05:46;100203.72;;;24.08;55.68
6144;BME280;3103;49.492;8.474;2022-09-03T15:10:54;100208.53;;;23.90;56.68
6144;BME280;3103;49.492;8.474;2022-09-03T15:16:10;100209.84;;;23.63;57.70
6144;BME280;3103;49.492;8.474;2022-09-03T15:18:54;100214.84;;;23.61;58.06
6144;BME280;3103;49.492;8.474;2022-09-03T15:30:08;100208.84;;;22.92;58.98
6144;BME280;3103;49.492;8.474;2022-09-03T15:32:42;100213.84;;;22.98;59.19
6144;BME280;3103;49.492;8.474;2022-09-03T15:38:18;100213.28;;;22.06;62.14
6144;BME280;3103;49.492;8.474;2022-09-03T15:43:38;100207.81;;;22.32;62.99
6144;BME280;3103;49.492;8.474;2022-09-03T15:46:11;100211.19;;;22.46;63.95
6144;BME280;3103;49.492;8.474;2022-09-03T15:49:01;100212.47;;;22.49;65.27
6144;BME280;3103;49.492;8.474;2022-09-03T15:51:41;100205.41;;;22.39;66.92
6144;BME280;3103;49.492;8.474;2022-09-03T15:54:19;100205.72;;;22.38;66.51
6144;BME280;3103;49.492;8.474;2022-09-03T15:56:57;100200.22;;;22.46;65.72
6144;BME280;3103;49.492;8.474;2022-09-03T15:59:53;100211.22;;;22.29;66.37
6144;BME280;3103;49.492;8.474;2022-09-03T16:02:44;100210.72;;;22.27;67.47